sensor_id;sensor_type;location;lat;lon;timestamp;temperature;humidity
2783;DHT22;1399;47.072;15.452;2023-08-07T00:00:34;17.20;73.90
2783;DHT22;1399;47.072;15.452;2023-08-07T00:03:00;17.10;74.00
2783;DHT22;1399;47.072;15.452;2023-08-07T00:05:26;17.10;74.00
2783;DHT22;1399;47.072;15.452;2023-08-07T00:07:52;17.10;74.10
2783;DHT22;1399;47.072;15.452;2023-08-07T00:10:18;17.10;74.00
2783;DHT22;1399;47.072;15.452;2023-08-07T00:12:44;17.00;73.90
2783;DHT22;1399;47.072;15.452;2023-08-07T00:15:10;17.00;73.90
2783;DHT22;1399;47.072;15.452;2023-08-07T00:17:37;17.00;73.80
2783;DHT22;1399;47.072;15.452;2023-08-07T00:20:03;17.00;73.80
2783;DHT22;1399;47.072;15.452;2023-08-07T00:22:29;17.00;73.60
2783;DHT22;1399;47.072;15.452;2023-08-07T00:24:55;17.00;73.60
2783;DHT22;1399;47.072;15.452;2023-08-07T00:27:21;17.00;73.60
2783;DHT22;1399;47.072;15.452;2023-08-07T00:29:47;16.90;73.40
2783;DHT22;1399;47.072;15.452;2023-08-07T00:32:13;16.90;73.40
2783;DHT22;1399;47.072;15.452;2023-08-07T00:34:39;16.90;73.30
2783;DHT22;1399;47.072;15.452;2023-08-07T00:37:05;16.90;73.30
2783;DHT22;1399;47.072;15.452;2023-08-07T00:39:30;16.90;73.30
2783;DHT22;1399;47.072;15.452;2023-08-07T00:41:56;16.90;73.30
2783;DHT22;1399;47.072;15.452;2023-08-07T00:44:22;16.90;73.30
2783;DHT22;1399;47.072;15.452;2023-08-07T00:46:49;16.80;73.20
2783;DHT22;1399;47.072;15.452;2023-08-07T00:49:16;16.80;73.20
2783;DHT22;1399;47.072;15.452;2023-08-07T00:51:44;16.80;73.20
2783;DHT22;1399;47.072;15.452;2023-08-07T00:54:12;16.80;73.30
2783;DHT22;1399;47.072;15.452;2023-08-07T00:56:39;16.80;73.40
2783;DHT22;1399;47.072;15.452;2023-08-07T00:59:05;16.80;73.40
2783;DHT22;1399;47.072;15.452;2023-08-07T01:01:32;16.70;73.30
2783;DHT22;1399;47.072;15.452;2023-08-07T01:03:58;16.70;73.30
2783;DHT22;1399;47.072;15.452;2023-08-07T01:06:24;16.70;73.30
2783;DHT22;1399;47.072;15.452;2023-08-07T01:08:50;16.70;73.30
2783;DHT22;1399;47.072;15.452;2023-08-07T01:11:44;16.70;73.50
2783;DHT22;1399;47.072;15.452;2023-08-07T01:17:13;16.60;73.60
2783;DHT22;1399;47.072;15.452;2023-08-07T01:19:41;16.60;73.80
2783;DHT22;1399;47.072;15.452;2023-08-07T01:22:11;16.60;74.00
2783;DHT22;1399;47.072;15.452;2023-08-07T01:24:40;16.60;74.10
2783;DHT22;1399;47.072;15.452;2023-08-07T01:35:15;16.50;74.70
2783;DHT22;1399;47.072;15.452;2023-08-07T01:37:43;16.40;74.70
2783;DHT22;1399;47.072;15.452;2023-08-07T01:40:11;16.40;74.80
2783;DHT22;1399;47.072;15.452;2023-08-07T01:42:38;16.40;75.00
2783;DHT22;1399;47.072;15.452;2023-08-07T01:45:05;16.40;75.10
2783;DHT22;1399;47.072;15.452;2023-08-07T01:47:30;16.40;75.20
2783;DHT22;1399;47.072;15.452;2023-08-07T01:49:56;16.40;75.30
2783;DHT22;1399;47.072;15.452;2023-08-07T01:52:22;16.30;75.30
2783;DHT22;1399;47.072;15.452;2023-08-07T01:54:49;16.30;75.30
2783;DHT22;1399;47.072;15.452;2023-08-07T01:57:14;16.30;75.40
2783;DHT22;1399;47.072;15.452;2023-08-07T01:59:40;16.30;75.60
2783;DHT22;1399;47.072;15.452;2023-08-07T02:02:06;16.20;75.60
2783;DHT22;1399;47.072;15.452;2023-08-07T02:04:31;16.20;75.60
2783;DHT22;1399;47.072;15.452;2023-08-07T02:06:57;16.20;75.60
2783;DHT22;1399;47.072;15.452;2023-08-07T02:09:23;16.20;75.60
2783;DHT22;1399;47.072;15.452;2023-08-07T02:11:49;16.10;75.50
2783;DHT22;1399;47.072;15.452;2023-08-07T02:14:15;16.20;75.60
2783;DHT22;1399;47.072;15.452;2023-08-07T02:16:40;16.10;75.50
2783;DHT22;1399;47.072;15.452;2023-08-07T02:19:06;16.10;75.50
2783;DHT22;1399;47.072;15.452;2023-08-07T02:21:32;16.10;75.50
2783;DHT22;1399;47.072;15.452;2023-08-07T02:23:58;16.10;75.60
2783;DHT22;1399;47.072;15.452;2023-08-07T02:26:24;16.00;75.50
2783;DHT22;1399;47.072;15.452;2023-08-07T02:28:49;16.00;75.50
2783;DHT22;1399;47.072;15.452;2023-08-07T02:31:15;16.00;75.60
2783;DHT22;1399;47.072;15.452;2023-08-07T02:33:41;16.00;75.70
2783;DHT22;1399;47.072;15.452;2023-08-07T02:36:07;16.00;75.70
2783;DHT22;1399;47.072;15.452;2023-08-07T02:38:33;15.90;75.60
2783;DHT22;1399;47.072;15.452;2023-08-07T02:40:59;15.90;75.60
2783;DHT22;1399;47.072;15.452;2023-08-07T02:43:25;15.90;76.50
2783;DHT22;1399;47.072;15.452;2023-08-07T02:45:51;15.90;75.60
2783;DHT22;1399;47.072;15.452;2023-08-07T02:48:17;15.90;75.60
2783;DHT22;1399;47.072;15.452;2023-08-07T02:50:43;15.80;75.50
2783;DHT22;1399;47.072;15.452;2023-08-07T02:53:09;15.80;75.60
2783;DHT22;1399;47.072;15.452;2023-08-07T02:55:35;15.80;75.60
2783;DHT22;1399;47.072;15.452;2023-08-07T02:58:01;15.70;75.50
2783;DHT22;1399;47.072;15.452;2023-08-07T03:00:26;15.70;75.60
2783;DHT22;1399;47.072;15.452;2023-08-07T03:02:53;15.70;75.70
2783;DHT22;1399;47.072;15.452;2023-08-07T03:05:18;15.70;75.70
2783;DHT22;1399;47.072;15.452;2023-08-07T03:07:44;15.70;75.70
2783;DHT22;1399;47.072;15.452;2023-08-07T03:10:10;15.70;75.80
2783;DHT22;1399;47.072;15.452;2023-08-07T03:12:36;15.70;75.80
2783;DHT22;1399;47.072;15.452;2023-08-07T03:15:04;15.60;75.90
2783;DHT22;1399;47.072;15.452;2023-08-07T03:17:31;15.60;75.90
2783;DHT22;1399;47.072;15.452;2023-08-07T03:19:57;15.60;76.00
2783;DHT22;1399;47.072;15.452;2023-08-07T03:22:23;15.60;76.10
2783;DHT22;1399;47.072;15.452;2023-08-07T03:24:49;15.60;76.10
2783;DHT22;1399;47.072;15.452;2023-08-07T03:27:15;15.50;76.00
2783;DHT22;1399;47.072;15.452;2023-08-07T03:29:41;15.50;76.10
2783;DHT22;1399;47.072;15.452;2023-08-07T03:32:08;15.50;76.10
2783;DHT22;1399;47.072;15.452;2023-08-07T03:34:33;15.50;76.10
2783;DHT22;1399;47.072;15.452;2023-08-07T03:36:59;15.50;76.10
2783;DHT22;1399;47.072;15.452;2023-08-07T03:39:25;15.50;76.20
2783;DHT22;1399;47.072;15.452;2023-08-07T03:41:51;15.50;76.20
2783;DHT22;1399;47.072;15.452;2023-08-07T03:44:17;15.50;76.00
2783;DHT22;1399;47.072;15.452;2023-08-07T03:46:42;15.50;76.80
2783;DHT22;1399;47.072;15.452;2023-08-07T03:49:08;15.50;75.90
2783;DHT22;1399;47.072;15.452;2023-08-07T03:51:34;15.50;75.80
2783;DHT22;1399;47.072;15.452;2023-08-07T03:54:00;15.50;75.80
2783;DHT22;1399;47.072;15.452;2023-08-07T03:56:26;15.50;75.80
2783;DHT22;1399;47.072;15.452;2023-08-07T03:58:53;15.50;75.80
2783;DHT22;1399;47.072;15.452;2023-08-07T04:01:19;15.50;75.80
2783;DHT22;1399;47.072;15.452;2023-08-07T04:03:46;15.50;75.80
2783;DHT22;1399;47.072;15.452;2023-08-07T04:06:13;15.50;75.90
2783;DHT22;1399;47.072;15.452;2023-08-07T04:08:42;15.50;75.80
2783;DHT22;1399;47.072;15.452;2023-08-07T04:11:08;15.50;75.80
2783;DHT22;1399;47.072;15.452;2023-08-07T04:13:35;15.50;75.80
2783;DHT22;1399;47.072;15.452;2023-08-07T04:16:01;15.50;75.80
2783;DHT22;1399;47.072;15.452;2023-08-07T04:18:29;15.50;75.70
2783;DHT22;1399;47.072;15.452;2023-08-07T04:20:56;15.50;75.70
2783;DHT22;1399;47.072;15.452;2023-08-07T04:23:23;15.50;75.70
2783;DHT22;1399;47.072;15.452;2023-08-07T04:25:49;15.50;76.60
2783;DHT22;1399;47.072;15.452;2023-08-07T04:28:15;15.50;75.70
2783;DHT22;1399;47.072;15.452;2023-08-07T04:30:41;15.50;75.70
2783;DHT22;1399;47.072;15.452;2023-08-07T04:33:08;15.50;75.80
2783;DHT22;1399;47.072;15.452;2023-08-07T04:35:33;15.60;75.90
2783;DHT22;1399;47.072;15.452;2023-08-07T04:38:00;15.50;75.80
2783;DHT22;1399;47.072;15.452;2023-08-07T04:40:27;15.60;75.90
2783;DHT22;1399;47.072;15.452;2023-08-07T04:42:54;15.60;75.80
2783;DHT22;1399;47.072;15.452;2023-08-07T04:45:19;15.70;75.80
2783;DHT22;1399;47.072;15.452;2023-08-07T04:47:45;15.70;75.60
2783;DHT22;1399;47.072;15.452;2023-08-07T04:50:11;15.70;75.40
2783;DHT22;1399;47.072;15.452;2023-08-07T04:52:37;15.80;75.30
2783;DHT22;1399;47.072;15.452;2023-08-07T04:55:03;15.80;75.10
2783;DHT22;1399;47.072;15.452;2023-08-07T04:57:29;15.80;74.90
2783;DHT22;1399;47.072;15.452;2023-08-07T04:59:55;15.90;74.90
2783;DHT22;1399;47.072;15.452;2023-08-07T05:02:21;15.90;74.80
2783;DHT22;1399;47.072;15.452;2023-08-07T05:04:46;15.90;74.80
2783;DHT22;1399;47.072;15.452;2023-08-07T05:07:12;16.00;74.80
2783;DHT22;1399;47.072;15.452;2023-08-07T05:09:38;16.00;75.70
2783;DHT22;1399;47.072;15.452;2023-08-07T05:12:05;16.00;74.90
2783;DHT22;1399;47.072;15.452;2023-08-07T05:14:32;16.10;75.10
2783;DHT22;1399;47.072;15.452;2023-08-07T05:16:58;16.10;75.10
2783;DHT22;1399;47.072;15.452;2023-08-07T05:19:25;16.10;75.10
2783;DHT22;1399;47.072;15.452;2023-08-07T05:21:51;16.10;75.20
2783;DHT22;1399;47.072;15.452;2023-08-07T05:24:18;16.20;75.30
2783;DHT22;1399;47.072;15.452;2023-08-07T05:26:44;16.30;75.30
2783;DHT22;1399;47.072;15.452;2023-08-07T05:29:10;16.30;75.20
2783;DHT22;1399;47.072;15.452;2023-08-07T05:31:35;16.30;75.20
2783;DHT22;1399;47.072;15.452;2023-08-07T05:34:01;16.40;75.30
2783;DHT22;1399;47.072;15.452;2023-08-07T05:36:27;16.40;75.20
2783;DHT22;1399;47.072;15.452;2023-08-07T05:38:54;16.40;75.10
2783;DHT22;1399;47.072;15.452;2023-08-07T05:41:20;16.40;74.90
2783;DHT22;1399;47.072;15.452;2023-08-07T05:43:46;16.40;74.50
2783;DHT22;1399;47.072;15.452;2023-08-07T05:46:11;16.50;74.50
2783;DHT22;1399;47.072;15.452;2023-08-07T05:48:37;16.60;74.50
2783;DHT22;1399;47.072;15.452;2023-08-07T05:51:03;16.60;74.40
2783;DHT22;1399;47.072;15.452;2023-08-07T05:53:29;16.60;74.30
2783;DHT22;1399;47.072;15.452;2023-08-07T05:55:55;16.70;74.30
2783;DHT22;1399;47.072;15.452;2023-08-07T05:58:21;16.70;74.30
2783;DHT22;1399;47.072;15.452;2023-08-07T06:00:47;16.70;74.50
2783;DHT22;1399;47.072;15.452;2023-08-07T06:03:13;16.70;74.70
2783;DHT22;1399;47.072;15.452;2023-08-07T06:05:39;16.80;74.90
2783;DHT22;1399;47.072;15.452;2023-08-07T06:08:05;16.70;74.80
2783;DHT22;1399;47.072;15.452;2023-08-07T06:10:30;16.70;74.70
2783;DHT22;1399;47.072;15.452;2023-08-07T06:12:56;16.80;74.90
2783;DHT22;1399;47.072;15.452;2023-08-07T06:15:22;16.80;74.90
2783;DHT22;1399;47.072;15.452;2023-08-07T06:17:48;16.80;74.90
2783;DHT22;1399;47.072;15.452;2023-08-07T06:20:16;16.80;74.80
2783;DHT22;1399;47.072;15.452;2023-08-07T06:22:42;16.90;74.40
2783;DHT22;1399;47.072;15.452;2023-08-07T06:25:08;16.90;74.10
2783;DHT22;1399;47.072;15.452;2023-08-07T06:27:34;16.90;74.30
2783;DHT22;1399;47.072;15.452;2023-08-07T06:30:00;17.00;74.50
2783;DHT22;1399;47.072;15.452;2023-08-07T06:32:26;17.00;74.50
2783;DHT22;1399;47.072;15.452;2023-08-07T06:34:52;17.20;74.50
2783;DHT22;1399;47.072;15.452;2023-08-07T06:37:19;17.30;74.30
2783;DHT22;1399;47.072;15.452;2023-08-07T06:39:44;17.40;73.90
2783;DHT22;1399;47.072;15.452;2023-08-07T06:42:12;17.50;73.50
2783;DHT22;1399;47.072;15.452;2023-08-07T06:44:38;17.60;73.30
2783;DHT22;1399;47.072;15.452;2023-08-07T06:47:04;17.70;73.20
2783;DHT22;1399;47.072;15.452;2023-08-07T06:49:29;17.70;72.90
2783;DHT22;1399;47.072;15.452;2023-08-07T06:51:57;17.80;72.60
2783;DHT22;1399;47.072;15.452;2023-08-07T06:54:23;17.90;72.40
2783;DHT22;1399;47.072;15.452;2023-08-07T06:56:49;17.90;72.20
2783;DHT22;1399;47.072;15.452;2023-08-07T06:59:15;18.00;72.00
2783;DHT22;1399;47.072;15.452;2023-08-07T07:01:41;18.00;71.70
2783;DHT22;1399;47.072;15.452;2023-08-07T07:04:06;18.00;71.50
2783;DHT22;1399;47.072;15.452;2023-08-07T07:06:33;18.00;71.20
2783;DHT22;1399;47.072;15.452;2023-08-07T07:08:59;18.10;71.00
2783;DHT22;1399;47.072;15.452;2023-08-07T07:11:25;18.10;70.70
2783;DHT22;1399;47.072;15.452;2023-08-07T07:13:51;18.10;70.40
2783;DHT22;1399;47.072;15.452;2023-08-07T07:16:21;18.20;70.10
2783;DHT22;1399;47.072;15.452;2023-08-07T07:18:54;18.30;69.60
2783;DHT22;1399;47.072;15.452;2023-08-07T07:21:21;18.30;69.30
2783;DHT22;1399;47.072;15.452;2023-08-07T07:23:47;18.40;68.90
2783;DHT22;1399;47.072;15.452;2023-08-07T07:26:13;18.40;68.30
2783;DHT22;1399;47.072;15.452;2023-08-07T07:28:38;18.50;67.40
2783;DHT22;1399;47.072;15.452;2023-08-07T07:31:04;18.60;66.80
2783;DHT22;1399;47.072;15.452;2023-08-07T07:33:31;18.60;66.60
2783;DHT22;1399;47.072;15.452;2023-08-07T07:35:57;18.70;66.40
2783;DHT22;1399;47.072;15.452;2023-08-07T07:38:23;18.80;66.40
2783;DHT22;1399;47.072;15.452;2023-08-07T07:40:49;18.90;66.30
2783;DHT22;1399;47.072;15.452;2023-08-07T07:43:15;19.00;66.10
2783;DHT22;1399;47.072;15.452;2023-08-07T07:45:41;19.00;65.70
2783;DHT22;1399;47.072;15.452;2023-08-07T07:48:06;19.10;65.10
2783;DHT22;1399;47.072;15.452;2023-08-07T07:50:33;19.10;64.70
2783;DHT22;1399;47.072;15.452;2023-08-07T07:52:59;19.10;64.50
2783;DHT22;1399;47.072;15.452;2023-08-07T07:55:25;19.10;64.20
2783;DHT22;1399;47.072;15.452;2023-08-07T07:57:51;19.10;64.00
2783;DHT22;1399;47.072;15.452;2023-08-07T08:00:17;19.10;63.90
2783;DHT22;1399;47.072;15.452;2023-08-07T08:02:43;19.10;63.60
2783;DHT22;1399;47.072;15.452;2023-08-07T08:05:09;19.20;63.40
2783;DHT22;1399;47.072;15.452;2023-08-07T08:07:37;19.20;63.10
2783;DHT22;1399;47.072;15.452;2023-08-07T08:10:06;19.30;62.70
2783;DHT22;1399;47.072;15.452;2023-08-07T08:12:32;19.30;62.20
2783;DHT22;1399;47.072;15.452;2023-08-07T08:14:58;19.40;61.70
2783;DHT22;1399;47.072;15.452;2023-08-07T08:17:24;19.50;62.10
2783;DHT22;1399;47.072;15.452;2023-08-07T08:19:50;19.60;60.50
2783;DHT22;1399;47.072;15.452;2023-08-07T08:22:15;19.70;60.00
2783;DHT22;1399;47.072;15.452;2023-08-07T08:24:41;19.70;59.60
2783;DHT22;1399;47.072;15.452;2023-08-07T08:27:07;19.80;59.10
2783;DHT22;1399;47.072;15.452;2023-08-07T08:29:33;19.80;58.70
2783;DHT22;1399;47.072;15.452;2023-08-07T08:31:58;19.80;58.30
2783;DHT22;1399;47.072;15.452;2023-08-07T08:34:26;19.90;58.00
2783;DHT22;1399;47.072;15.452;2023-08-07T08:36:52;20.00;57.70
2783;DHT22;1399;47.072;15.452;2023-08-07T08:39:18;20.00;57.40
2783;DHT22;1399;47.072;15.452;2023-08-07T08:41:46;20.00;56.90
2783;DHT22;1399;47.072;15.452;2023-08-07T08:44:14;20.00;56.70
2783;DHT22;1399;47.072;15.452;2023-08-07T08:46:42;20.10;56.60
2783;DHT22;1399;47.072;15.452;2023-08-07T08:49:09;20.10;56.30
2783;DHT22;1399;47.072;15.452;2023-08-07T08:51:36;20.10;56.00
2783;DHT22;1399;47.072;15.452;2023-08-07T08:54:03;20.20;55.70
2783;DHT22;1399;47.072;15.452;2023-08-07T08:56:32;20.20;55.50
2783;DHT22;1399;47.072;15.452;2023-08-07T08:58:58;20.30;55.20
2783;DHT22;1399;47.072;15.452;2023-08-07T09:01:24;20.30;54.80
2783;DHT22;1399;47.072;15.452;2023-08-07T09:03:50;20.30;54.60
2783;DHT22;1399;47.072;15.452;2023-08-07T09:06:18;20.40;54.50
2783;DHT22;1399;47.072;15.452;2023-08-07T09:08:45;20.40;54.40
2783;DHT22;1399;47.072;15.452;2023-08-07T09:11:12;20.40;54.10
2783;DHT22;1399;47.072;15.452;2023-08-07T09:13:40;20.50;54.00
2783;DHT22;1399;47.072;15.452;2023-08-07T09:16:09;20.50;53.90
2783;DHT22;1399;47.072;15.452;2023-08-07T09:18:36;20.50;53.80
2783;DHT22;1399;47.072;15.452;2023-08-07T09:21:02;20.50;53.60
2783;DHT22;1399;47.072;15.452;2023-08-07T09:23:28;20.50;53.60
2783;DHT22;1399;47.072;15.452;2023-08-07T09:26:04;20.50;53.50
2783;DHT22;1399;47.072;15.452;2023-08-07T09:28:31;20.50;54.10
2783;DHT22;1399;47.072;15.452;2023-08-07T09:30:58;20.50;53.40
2783;DHT22;1399;47.072;15.452;2023-08-07T09:33:25;20.60;53.30
2783;DHT22;1399;47.072;15.452;2023-08-07T09:35:52;20.70;52.90
2783;DHT22;1399;47.072;15.452;2023-08-07T09:38:18;20.70;52.70
2783;DHT22;1399;47.072;15.452;2023-08-07T09:40:44;20.70;52.40
2783;DHT22;1399;47.072;15.452;2023-08-07T09:43:10;20.80;52.30
2783;DHT22;1399;47.072;15.452;2023-08-07T09:45:45;20.80;52.10
2783;DHT22;1399;47.072;15.452;2023-08-07T09:48:11;20.80;52.10
2783;DHT22;1399;47.072;15.452;2023-08-07T09:50:37;20.90;52.00
2783;DHT22;1399;47.072;15.452;2023-08-07T09:53:03;20.90;51.80
2783;DHT22;1399;47.072;15.452;2023-08-07T09:55:29;21.00;51.50
2783;DHT22;1399;47.072;15.452;2023-08-07T09:57:55;21.00;51.30
2783;DHT22;1399;47.072;15.452;2023-08-07T10:00:21;21.00;51.00
2783;DHT22;1399;47.072;15.452;2023-08-07T10:02:50;21.00;50.50
2783;DHT22;1399;47.072;15.452;2023-08-07T10:05:17;21.00;50.10
2783;DHT22;1399;47.072;15.452;2023-08-07T10:07:43;21.10;50.10
2783;DHT22;1399;47.072;15.452;2023-08-07T10:10:10;21.10;49.90
2783;DHT22;1399;47.072;15.452;2023-08-07T10:12:39;21.10;49.80
2783;DHT22;1399;47.072;15.452;2023-08-07T10:15:06;21.10;49.70
2783;DHT22;1399;47.072;15.452;2023-08-07T10:17:33;21.10;49.70
2783;DHT22;1399;47.072;15.452;2023-08-07T10:19:59;21.10;50.00
2783;DHT22;1399;47.072;15.452;2023-08-07T10:22:26;21.10;49.90
2783;DHT22;1399;47.072;15.452;2023-08-07T10:24:53;21.20;49.70
2783;DHT22;1399;47.072;15.452;2023-08-07T10:27:23;21.20;49.50
2783;DHT22;1399;47.072;15.452;2023-08-07T10:29:52;21.30;49.10
2783;DHT22;1399;47.072;15.452;2023-08-07T10:32:20;21.30;48.80
2783;DHT22;1399;47.072;15.452;2023-08-07T10:34:49;21.40;48.70
2783;DHT22;1399;47.072;15.452;2023-08-07T10:37:43;21.40;48.40
2783;DHT22;1399;47.072;15.452;2023-08-07T10:40:11;21.40;48.10
2783;DHT22;1399;47.072;15.452;2023-08-07T10:45:23;21.50;47.40
2783;DHT22;1399;47.072;15.452;2023-08-07T10:50:35;21.60;46.90
2783;DHT22;1399;47.072;15.452;2023-08-07T10:53:04;21.60;46.70
2783;DHT22;1399;47.072;15.452;2023-08-07T10:55:46;21.70;46.70
2783;DHT22;1399;47.072;15.452;2023-08-07T10:58:35;21.70;46.60
2783;DHT22;1399;47.072;15.452;2023-08-07T11:04:06;21.70;46.00
2783;DHT22;1399;47.072;15.452;2023-08-07T11:06:34;21.80;45.70
2783;DHT22;1399;47.072;15.452;2023-08-07T11:09:01;21.80;45.50
2783;DHT22;1399;47.072;15.452;2023-08-07T11:11:29;21.80;45.50
2783;DHT22;1399;47.072;15.452;2023-08-07T11:13:55;21.80;45.40
2783;DHT22;1399;47.072;15.452;2023-08-07T11:16:21;21.80;45.50
2783;DHT22;1399;47.072;15.452;2023-08-07T11:19:01;21.80;45.40
2783;DHT22;1399;47.072;15.452;2023-08-07T11:21:27;21.70;45.40
2783;DHT22;1399;47.072;15.452;2023-08-07T11:23:53;21.80;45.40
2783;DHT22;1399;47.072;15.452;2023-08-07T11:26:18;21.80;45.40
2783;DHT22;1399;47.072;15.452;2023-08-07T11:28:48;21.80;45.40
2783;DHT22;1399;47.072;15.452;2023-08-07T11:31:14;21.80;45.50
2783;DHT22;1399;47.072;15.452;2023-08-07T11:33:40;21.80;45.40
2783;DHT22;1399;47.072;15.452;2023-08-07T11:36:13;21.80;45.30
2783;DHT22;1399;47.072;15.452;2023-08-07T11:38:43;21.80;45.30
2783;DHT22;1399;47.072;15.452;2023-08-07T11:41:11;21.80;45.10
2783;DHT22;1399;47.072;15.452;2023-08-07T11:43:37;21.80;45.00
2783;DHT22;1399;47.072;15.452;2023-08-07T11:46:05;21.80;44.90
2783;DHT22;1399;47.072;15.452;2023-08-07T11:48:32;21.80;44.80
2783;DHT22;1399;47.072;15.452;2023-08-07T11:50:59;21.80;44.70
2783;DHT22;1399;47.072;15.452;2023-08-07T11:53:27;21.90;44.50
2783;DHT22;1399;47.072;15.452;2023-08-07T11:58:20;21.90;44.10
2783;DHT22;1399;47.072;15.452;2023-08-07T12:00:46;21.90;43.90
2783;DHT22;1399;47.072;15.452;2023-08-07T12:03:28;21.90;43.90
2783;DHT22;1399;47.072;15.452;2023-08-07T12:05:58;22.00;43.90
2783;DHT22;1399;47.072;15.452;2023-08-07T12:08:40;21.90;43.90
2783;DHT22;1399;47.072;15.452;2023-08-07T12:11:11;21.90;43.90
2783;DHT22;1399;47.072;15.452;2023-08-07T12:13:41;21.90;43.90
2783;DHT22;1399;47.072;15.452;2023-08-07T12:16:08;21.90;44.00
2783;DHT22;1399;47.072;15.452;2023-08-07T12:18:34;21.90;43.90
2783;DHT22;1399;47.072;15.452;2023-08-07T12:21:04;21.90;43.90
2783;DHT22;1399;47.072;15.452;2023-08-07T12:23:35;21.90;43.90
2783;DHT22;1399;47.072;15.452;2023-08-07T12:26:02;21.90;43.90
2783;DHT22;1399;47.072;15.452;2023-08-07T12:28:28;21.90;43.90
2783;DHT22;1399;47.072;15.452;2023-08-07T12:30:53;22.00;44.00
2783;DHT22;1399;47.072;15.452;2023-08-07T12:33:19;22.00;44.10
2783;DHT22;1399;47.072;15.452;2023-08-07T12:35:45;22.00;44.00
2783;DHT22;1399;47.072;15.452;2023-08-07T12:38:11;22.00;44.00
2783;DHT22;1399;47.072;15.452;2023-08-07T12:40:40;22.00;43.90
2783;DHT22;1399;47.072;15.452;2023-08-07T12:43:06;22.00;43.90
2783;DHT22;1399;47.072;15.452;2023-08-07T12:45:32;22.00;43.90
2783;DHT22;1399;47.072;15.452;2023-08-07T12:47:59;22.00;44.00
2783;DHT22;1399;47.072;15.452;2023-08-07T12:50:25;22.00;44.10
2783;DHT22;1399;47.072;15.452;2023-08-07T12:52:51;22.00;44.10
2783;DHT22;1399;47.072;15.452;2023-08-07T12:55:17;22.00;44.30
2783;DHT22;1399;47.072;15.452;2023-08-07T12:57:44;22.00;44.40
2783;DHT22;1399;47.072;15.452;2023-08-07T13:00:11;22.00;44.50
2783;DHT22;1399;47.072;15.452;2023-08-07T13:02:41;22.00;44.50
2783;DHT22;1399;47.072;15.452;2023-08-07T13:05:07;22.00;44.50
2783;DHT22;1399;47.072;15.452;2023-08-07T13:07:34;22.00;44.60
2783;DHT22;1399;47.072;15.452;2023-08-07T13:10:00;22.00;44.60
2783;DHT22;1399;47.072;15.452;2023-08-07T13:12:26;22.00;44.60
2783;DHT22;1399;47.072;15.452;2023-08-07T13:14:52;22.10;44.70
2783;DHT22;1399;47.072;15.452;2023-08-07T13:17:18;22.10;44.70
2783;DHT22;1399;47.072;15.452;2023-08-07T13:19:44;22.10;44.80
2783;DHT22;1399;47.072;15.452;2023-08-07T13:22:09;22.10;44.80
2783;DHT22;1399;47.072;15.452;2023-08-07T13:24:35;22.10;44.80
2783;DHT22;1399;47.072;15.452;2023-08-07T13:27:01;22.10;44.80
2783;DHT22;1399;47.072;15.452;2023-08-07T13:29:28;22.10;44.80
2783;DHT22;1399;47.072;15.452;2023-08-07T13:31:55;22.10;45.40
2783;DHT22;1399;47.072;15.452;2023-08-07T13:34:21;22.10;44.80
2783;DHT22;1399;47.072;15.452;2023-08-07T13:36:47;22.10;44.80
2783;DHT22;1399;47.072;15.452;2023-08-07T13:39:13;22.10;44.80
2783;DHT22;1399;47.072;15.452;2023-08-07T13:41:39;22.10;44.80
2783;DHT22;1399;47.072;15.452;2023-08-07T13:44:05;22.10;44.90
2783;DHT22;1399;47.072;15.452;2023-08-07T13:46:31;22.10;44.90
2783;DHT22;1399;47.072;15.452;2023-08-07T13:48:57;22.10;44.90
2783;DHT22;1399;47.072;15.452;2023-08-07T13:51:24;22.10;45.00
2783;DHT22;1399;47.072;15.452;2023-08-07T13:53:49;22.10;45.00
2783;DHT22;1399;47.072;15.452;2023-08-07T13:56:18;22.10;45.00
2783;DHT22;1399;47.072;15.452;2023-08-07T13:58:44;22.10;45.00
2783;DHT22;1399;47.072;15.452;2023-08-07T14:01:11;22.10;45.10
2783;DHT22;1399;47.072;15.452;2023-08-07T14:03:37;22.10;45.00
2783;DHT22;1399;47.072;15.452;2023-08-07T14:06:03;22.10;45.10
2783;DHT22;1399;47.072;15.452;2023-08-07T14:08:30;22.10;45.00
2783;DHT22;1399;47.072;15.452;2023-08-07T14:10:58;22.00;45.00
2783;DHT22;1399;47.072;15.452;2023-08-07T14:13:24;22.00;45.00
2783;DHT22;1399;47.072;15.452;2023-08-07T14:15:49;22.10;45.00
2783;DHT22;1399;47.072;15.452;2023-08-07T14:18:15;22.00;45.00
2783;DHT22;1399;47.072;15.452;2023-08-07T14:20:42;22.00;45.10
2783;DHT22;1399;47.072;15.452;2023-08-07T14:23:07;22.00;45.10
2783;DHT22;1399;47.072;15.452;2023-08-07T14:25:33;22.00;45.10
2783;DHT22;1399;47.072;15.452;2023-08-07T14:27:59;22.00;45.20
2783;DHT22;1399;47.072;15.452;2023-08-07T14:30:25;22.00;45.20
2783;DHT22;1399;47.072;15.452;2023-08-07T14:32:50;22.00;45.20
2783;DHT22;1399;47.072;15.452;2023-08-07T14:35:16;22.00;45.40
2783;DHT22;1399;47.072;15.452;2023-08-07T14:37:42;22.00;45.40
2783;DHT22;1399;47.072;15.452;2023-08-07T14:40:09;22.00;45.30
2783;DHT22;1399;47.072;15.452;2023-08-07T14:42:35;22.00;45.30
2783;DHT22;1399;47.072;15.452;2023-08-07T14:45:01;22.00;45.30
2783;DHT22;1399;47.072;15.452;2023-08-07T14:47:26;22.00;45.30
2783;DHT22;1399;47.072;15.452;2023-08-07T14:49:52;21.90;45.30
2783;DHT22;1399;47.072;15.452;2023-08-07T14:52:18;21.90;45.40
2783;DHT22;1399;47.072;15.452;2023-08-07T14:54:44;21.90;45.40
2783;DHT22;1399;47.072;15.452;2023-08-07T14:57:09;21.90;45.50
2783;DHT22;1399;47.072;15.452;2023-08-07T14:59:35;21.80;45.40
2783;DHT22;1399;47.072;15.452;2023-08-07T15:02:01;21.80;45.30
2783;DHT22;1399;47.072;15.452;2023-08-07T15:04:27;21.80;45.20
2783;DHT22;1399;47.072;15.452;2023-08-07T15:06:53;21.80;45.10
2783;DHT22;1399;47.072;15.452;2023-08-07T15:09:19;21.80;45.20
2783;DHT22;1399;47.072;15.452;2023-08-07T15:11:48;21.80;45.20
2783;DHT22;1399;47.072;15.452;2023-08-07T15:14:14;21.80;45.30
2783;DHT22;1399;47.072;15.452;2023-08-07T15:16:40;21.80;45.30
2783;DHT22;1399;47.072;15.452;2023-08-07T15:19:06;21.70;45.10
2783;DHT22;1399;47.072;15.452;2023-08-07T15:21:32;21.70;45.00
2783;DHT22;1399;47.072;15.452;2023-08-07T15:23:58;21.70;44.80
2783;DHT22;1399;47.072;15.452;2023-08-07T15:26:24;21.70;44.80
2783;DHT22;1399;47.072;15.452;2023-08-07T15:28:50;21.70;45.00
2783;DHT22;1399;47.072;15.452;2023-08-07T15:31:16;21.70;45.30
2783;DHT22;1399;47.072;15.452;2023-08-07T15:33:42;21.60;45.30
2783;DHT22;1399;47.072;15.452;2023-08-07T15:36:13;21.60;45.40
2783;DHT22;1399;47.072;15.452;2023-08-07T15:38:39;21.60;45.30
2783;DHT22;1399;47.072;15.452;2023-08-07T15:41:05;21.60;45.10
2783;DHT22;1399;47.072;15.452;2023-08-07T15:43:31;21.60;45.00
2783;DHT22;1399;47.072;15.452;2023-08-07T15:45:57;21.50;44.90
2783;DHT22;1399;47.072;15.452;2023-08-07T15:48:23;21.50;44.90
2783;DHT22;1399;47.072;15.452;2023-08-07T15:50:49;21.50;44.90
2783;DHT22;1399;47.072;15.452;2023-08-07T15:53:15;21.50;44.90
2783;DHT22;1399;47.072;15.452;2023-08-07T15:55:41;21.40;44.70
2783;DHT22;1399;47.072;15.452;2023-08-07T15:58:07;21.40;44.70
2783;DHT22;1399;47.072;15.452;2023-08-07T16:00:34;21.40;45.20
2783;DHT22;1399;47.072;15.452;2023-08-07T16:03:04;21.40;44.60